Time;durP1;ratioP1;P1;durP2;ratioP2;P2;SDS_P1;SDS_P2;PMS_P1;PMS_P2;Temp;Humidity;BMP_temperature;BMP_pressure;BME280_temperature;BME280_humidity;BME280_pressure;Samples;Min_cycle;Max_cycle;Signal;HPM_P1;HPM_P2
2024/03/03 00:04:10;;;;;;;9.45;7.85;;;8.30;99.90;;;;;;12419859;28;20050;-36
2024/03/03 00:10:12;;;;;;;11.00;7.57;;;8.20;99.90;;;;;;12403839;28;20050;-34
2024/03/03 00:16:14;;;;;;;10.98;8.65;;;8.10;99.90;;;;;;12419487;28;20549;-36
2024/03/03 00:22:16;;;;;;;11.00;8.32;;;8.00;99.90;;;;;;12420740;28;20505;-36
2024/03/03 00:28:18;;;;;;;9.07;7.50;;;8.00;99.90;;;;;;12419750;28;20050;-35
2024/03/03 00:34:20;;;;;;;8.52;7.10;;;8.00;99.90;;;;;;12423314;28;20065;-36
2024/03/03 00:40:22;;;;;;;9.55;7.28;;;8.00;99.90;;;;;;12415094;28;20058;-34
2024/03/03 00:46:24;;;;;;;9.95;6.80;;;7.90;99.90;;;;;;12435968;28;20092;-35
2024/03/03 00:52:26;;;;;;;9.98;6.82;;;7.60;99.90;;;;;;12426553;28;20054;-36
2024/03/03 00:58:28;;;;;;;10.13;6.45;;;7.30;99.90;;;;;;12412235;28;20188;-36
2024/03/03 01:04:29;;;;;;;10.75;7.03;;;7.30;99.90;;;;;;12427982;28;20050;-36
2024/03/03 01:10:31;;;;;;;9.90;6.78;;;7.20;99.90;;;;;;12430325;28;20518;-36
2024/03/03 01:16:33;;;;;;;9.88;6.95;;;7.10;99.90;;;;;;12434753;28;20534;-36
2024/03/03 01:22:38;;;;;;;9.75;6.90;;;7.00;99.90;;;;;;12444560;28;20077;-35
2024/03/03 01:28:40;;;;;;;11.00;6.32;;;7.00;99.90;;;;;;12430535;28;20050;-35
2024/03/03 01:34:42;;;;;;;8.43;6.15;;;7.00;99.90;;;;;;12447721;28;20053;-36
2024/03/03 01:40:51;;;;;;;9.25;6.22;;;6.70;99.90;;;;;;12443706;28;20072;-35
2024/03/03 01:46:54;;;;;;;10.25;6.00;;;6.50;99.90;;;;;;12433286;28;20050;-35
2024/03/03 01:52:56;;;;;;;8.52;6.32;;;6.30;99.90;;;;;;12419454;28;20046;-35
2024/03/03 01:59:02;;;;;;;10.32;6.35;;;6.40;99.90;;;;;;12422136;28;20046;-34
2024/03/03 02:05:05;;;;;;;11.38;6.60;;;6.40;99.90;;;;;;12424060;28;20053;-35
2024/03/03 02:11:07;;;;;;;9.33;6.40;;;6.30;99.90;;;;;;12421204;28;20191;-35
2024/03/03 02:17:09;;;;;;;11.15;6.43;;;6.30;99.90;;;;;;12416154;28;20045;-34
2024/03/03 02:23:11;;;;;;;9.70;6.57;;;6.30;99.90;;;;;;12421963;28;20141;-35
2024/03/03 02:29:14;;;;;;;10.68;7.15;;;6.20;99.90;;;;;;12429770;28;20132;-35
2024/03/03 02:35:16;;;;;;;10.18;6.13;;;6.10;99.90;;;;;;12431020;28;20073;-36
2024/03/03 02:41:18;;;;;;;9.75;6.07;;;6.10;99.90;;;;;;12421112;28;20053;-35
2024/03/03 02:47:19;;;;;;;10.57;6.25;;;6.10;99.90;;;;;;12430872;28;20144;-36
2024/03/03 02:53:21;;;;;;;9.48;7.03;;;6.10;99.90;;;;;;12428852;28;20556;-35
2024/03/03 02:59:23;;;;;;;11.60;6.65;;;6.00;99.90;;;;;;12439054;28;20080;-36
2024/03/03 03:05:25;;;;;;;8.80;5.85;;;6.00;99.90;;;;;;12438219;28;20053;-34
2024/03/03 03:11:27;;;;;;;9.40;6.03;;;6.10;99.90;;;;;;12436259;28;20081;-36
2024/03/03 03:17:28;;;;;;;10.82;6.63;;;5.90;99.90;;;;;;12432991;28;20053;-36
2024/03/03 03:23:30;;;;;;;10.68;7.00;;;5.80;99.90;;;;;;12439234;28;20411;-36
2024/03/03 03:29:32;;;;;;;12.45;7.20;;;5.90;99.90;;;;;;12434727;28;20426;-36
2024/03/03 03:35:34;;;;;;;11.60;6.95;;;6.10;99.90;;;;;;12432631;28;20053;-36
2024/03/03 03:41:46;;;;;;;13.35;7.43;;;6.10;99.90;;;;;;12434975;28;20136;-35
2024/03/03 03:47:48;;;;;;;11.60;7.28;;;6.00;99.90;;;;;;12422822;28;20046;-36
2024/03/03 03:53:50;;;;;;;13.98;7.18;;;6.10;99.90;;;;;;12420383;28;20054;-35
2024/03/03 03:59:52;;;;;;;13.02;7.20;;;6.10;99.90;;;;;;12420443;28;20154;-36
2024/03/03 04:05:54;;;;;;;12.30;7.60;;;6.00;99.90;;;;;;12420157;28;20077;-35
2024/03/03 04:11:56;;;;;;;13.52;7.13;;;5.90;99.90;;;;;;12417851;28;20138;-35
2024/03/03 04:17:58;;;;;;;14.63;8.18;;;5.80;99.90;;;;;;12422852;28;20085;-35
2024/03/03 04:24:00;;;;;;;12.80;7.68;;;5.80;99.90;;;;;;12420318;28;20050;-36
2024/03/03 04:30:02;;;;;;;12.73;7.25;;;5.70;99.90;;;;;;12414707;28;20049;-36
2024/03/03 04:36:11;;;;;;;13.88;7.55;;;5.70;99.90;;;;;;12420342;28;20072;-36
2024/03/03 04:42:13;;;;;;;16.90;10.23;;;5.70;99.90;;;;;;12410047;28;20442;-35
2024/03/03 04:48:15;;;;;;;28.75;15.82;;;5.70;99.90;;;;;;12440987;28;20058;-36
2024/03/03 04:54:17;;;;;;;14.88;9.45;;;5.70;99.90;;;;;;12425370;28;20046;-35
2024/03/03 05:00:19;;;;;;;14.95;8.50;;;5.80;99.90;;;;;;12443659;28;20140;-36
2024/03/03 05:06:22;;;;;;;15.60;8.55;;;6.00;99.90;;;;;;12441960;28;20058;-36
2024/03/03 05:12:24;;;;;;;14.95;8.68;;;6.00;99.90;;;;;;12439981;28;20184;-36
2024/03/03 05:18:26;;;;;;;17.80;10.00;;;5.90;99.90;;;;;;12444738;28;20557;-36
2024/03/03 05:24:27;;;;;;;17.20;10.13;;;5.90;99.90;;;;;;12438867;28;20045;-36
2024/03/03 05:30:29;;;;;;;16.95;9.85;;;5.80;99.90;;;;;;12440830;28;20134;-35
2024/03/03 05:36:33;;;;;;;16.65;9.57;;;5.80;99.90;;;;;;12440695;28;20062;-35
2024/03/03 05:42:35;;;;;;;17.80;10.05;;;5.60;99.90;;;;;;12444052;28;20053;-35
2024/03/03 05:48:37;;;;;;;16.63;9.55;;;5.60;99.90;;;;;;12426862;28;20064;-36
2024/03/03 05:54:39;;;;;;;18.70;9.73;;;5.50;99.90;;;;;;12420646;28;20053;-35
2024/03/03 06:00:41;;;;;;;19.63;10.00;;;5.30;99.90;;;;;;12411354;28;20053;-36
2024/03/03 06:06:45;;;;;;;18.83;9.95;;;5.30;99.90;;;;;;12421795;28;20049;-34
2024/03/03 06:12:46;;;;;;;16.30;10.10;;;5.20;99.90;;;;;;12431484;28;20054;-35
2024/03/03 06:18:48;;;;;;;18.60;9.82;;;5.30;99.90;;;;;;12413372;28;20136;-35
2024/03/03 06:24:50;;;;;;;17.67;10.20;;;5.40;99.90;;;;;;12430973;28;20064;-35
2024/03/03 06:30:53;;;;;;;16.35;9.88;;;5.40;99.90;;;;;;12430885;28;20137;-36
2024/03/03 06:36:55;;;;;;;15.52;9.38;;;5.40;99.90;;;;;;12422311;28;20058;-35
2024/03/03 06:42:57;;;;;;;14.52;9.57;;;5.50;99.90;;;;;;12439897;28;20103;-36
2024/03/03 06:48:59;;;;;;;16.90;10.82;;;5.70;99.90;;;;;;12433163;28;20057;-35
2024/03/03 06:55:01;;;;;;;13.73;9.52;;;5.80;99.90;;;;;;12436838;28;20046;-34
2024/03/03 07:01:03;;;;;;;16.45;10.00;;;6.00;99.90;;;;;;12435573;28;20041;-36
2024/03/03 07:07:05;;;;;;;21.17;10.13;;;6.10;99.90;;;;;;12440362;28;20600;-35
2024/03/03 07:13:07;;;;;;;15.63;9.55;;;6.30;99.90;;;;;;12437820;28;20050;-35
2024/03/03 07:19:09;;;;;;;12.82;8.57;;;6.40;99.90;;;;;;12413361;28;20045;-37
2024/03/03 07:25:13;;;;;;;13.93;9.43;;;6.60;99.90;;;;;;12439992;28;20046;-36
2024/03/03 07:31:15;;;;;;;14.97;9.47;;;6.70;99.90;;;;;;12437226;28;20498;-36
2024/03/03 07:37:17;;;;;;;17.25;10.57;;;6.90;99.90;;;;;;12435900;28;20053;-35
2024/03/03 07:43:19;;;;;;;16.55;11.25;;;7.10;99.90;;;;;;12438876;28;20046;-36
2024/03/03 07:49:21;;;;;;;16.98;12.25;;;7.30;99.90;;;;;;12418724;28;20050;-34
2024/03/03 07:55:27;;;;;;;15.43;13.27;;;7.50;99.90;;;;;;12419634;28;20528;-36
2024/03/03 08:01:33;;;;;;;;;;;7.90;99.90;;;;;;12417524;28;20054;-36
2024/03/03 08:07:36;;;;;;;15.77;13.10;;;8.00;99.90;;;;;;12416306;28;19925;-36
2024/03/03 08:13:38;;;;;;;15.27;11.75;;;8.20;99.90;;;;;;12416976;28;20303;-36
2024/03/03 08:19:40;;;;;;;17.08;14.27;;;8.40;99.90;;;;;;12420796;28;20052;-36
2024/03/03 08:25:41;;;;;;;17.27;15.15;;;8.80;99.90;;;;;;12422763;28;20099;-36
2024/03/03 08:31:44;;;;;;;17.10;14.93;;;8.90;99.90;;;;;;12421103;28;20494;-35
2024/03/03 08:37:46;;;;;;;17.90;16.00;;;9.10;99.90;;;;;;12420634;28;20060;-36
2024/03/03 08:43:48;;;;;;;18.13;16.45;;;9.30;99.90;;;;;;12414797;28;21175;-36
2024/03/03 08:49:50;;;;;;;20.60;18.48;;;9.60;99.90;;;;;;12429369;28;20089;-36
2024/03/03 08:55:51;;;;;;;19.35;17.52;;;9.80;99.90;;;;;;12431019;28;20049;-36
2024/03/03 09:01:54;;;;;;;18.85;17.27;;;9.90;99.90;;;;;;12430730;28;20144;-36
2024/03/03 09:07:56;;;;;;;20.63;18.67;;;10.20;99.90;;;;;;12429484;28;20494;-36
2024/03/03 09:14:00;;;;;;;21.27;19.27;;;10.30;99.90;;;;;;12428643;28;20052;-36
2024/03/03 09:20:03;;;;;;;20.15;18.45;;;10.50;99.90;;;;;;12431768;28;20169;-36
2024/03/03 09:26:05;;;;;;;19.85;18.17;;;10.60;99.90;;;;;;12432275;28;20058;-35
2024/03/03 09:32:07;;;;;;;22.92;20.40;;;10.80;99.90;;;;;;12428960;28;20084;-36
2024/03/03 09:38:09;;;;;;;23.65;21.65;;;11.40;99.90;;;;;;12438696;28;20054;-36
2024/03/03 09:44:16;;;;;;;21.98;20.10;;;11.70;99.90;;;;;;12441417;28;20083;-36
2024/03/03 09:50:21;;;;;;;23.60;21.50;;;11.90;99.90;;;;;;12421744;28;20114;-36
2024/03/03 09:56:25;;;;;;;22.33;20.27;;;11.90;99.90;;;;;;12419833;28;20061;-35
2024/03/03 10:02:28;;;;;;;21.17;19.27;;;11.90;99.90;;;;;;12408641;28;20417;-35
2024/03/03 10:08:32;;;;;;;22.50;20.77;;;12.00;99.90;;;;;;12417574;28;20657;-36
2024/03/03 10:14:34;;;;;;;22.25;19.95;;;12.30;99.90;;;;;;12426883;28;20136;-36
2024/03/03 10:20:36;;;;;;;21.83;19.88;;;12.60;99.90;;;;;;12401535;28;20137;-36
2024/03/03 10:26:38;;;;;;;24.33;22.42;;;12.70;99.90;;;;;;12420132;28;20145;-36
2024/03/03 10:32:43;;;;;;;24.33;21.92;;;13.20;99.90;;;;;;12434971;28;20049;-36
2024/03/03 10:38:49;;;;;;;25.23;23.02;;;13.20;99.90;;;;;;12426732;28;20060;-37
2024/03/03 10:44:51;;;;;;;23.27;21.35;;;13.50;99.90;;;;;;12428113;28;20058;-36
2024/03/03 10:50:53;;;;;;;23.60;21.60;;;13.20;99.90;;;;;;12430932;28;20095;-36
2024/03/03 10:56:56;;;;;;;23.00;21.00;;;13.20;99.90;;;;;;12439472;28;20057;-36
2024/03/03 11:02:59;;;;;;;25.65;23.55;;;13.10;99.90;;;;;;12438432;28;20509;-36
2024/03/03 11:09:04;;;;;;;24.00;21.90;;;13.00;99.90;;;;;;12432772;28;20049;-36
2024/03/03 11:15:11;;;;;;;23.13;21.13;;;12.60;99.90;;;;;;12433732;28;20069;-36
2024/03/03 11:21:19;;;;;;;21.48;19.50;;;12.30;99.90;;;;;;12435835;28;20057;-36
2024/03/03 11:27:29;;;;;;;22.02;19.98;;;12.10;99.90;;;;;;12429718;28;20491;-36
2024/03/03 11:33:33;;;;;;;20.58;18.55;;;12.10;99.90;;;;;;12435896;28;20065;-36
2024/03/03 11:39:35;;;;;;;22.10;19.80;;;12.20;99.90;;;;;;12430875;28;20052;-36
2024/03/03 11:45:45;;;;;;;21.10;18.77;;;12.30;99.90;;;;;;12433502;28;20099;-36
2024/03/03 11:51:48;;;;;;;20.17;18.23;;;12.60;99.90;;;;;;12424994;28;20428;-36
2024/03/03 11:57:51;;;;;;;21.00;18.90;;;12.70;99.90;;;;;;12427815;28;20053;-36
2024/03/03 12:03:53;;;;;;;21.42;17.58;;;12.60;99.90;;;;;;12435409;28;20383;-36
2024/03/03 12:09:55;;;;;;;19.10;17.40;;;12.60;99.90;;;;;;12429274;28;20047;-36
2024/03/03 12:15:57;;;;;;;18.92;17.05;;;12.90;99.90;;;;;;12433318;28;20060;-36
2024/03/03 12:22:00;;;;;;;19.05;17.27;;;13.20;99.90;;;;;;12435675;28;20052;-36
2024/03/03 12:28:04;;;;;;;22.23;19.50;;;13.20;99.90;;;;;;12427022;28;20046;-36
2024/03/03 12:34:06;;;;;;;22.73;20.40;;;13.50;99.90;;;;;;12428481;28;20144;-36
2024/03/03 12:40:10;;;;;;;25.00;22.63;;;13.50;99.90;;;;;;12406855;28;20046;-36
2024/03/03 12:46:12;;;;;;;24.13;21.35;;;13.30;99.90;;;;;;12436513;28;20491;-35
2024/03/03 12:52:16;;;;;;;25.88;23.02;;;13.20;99.90;;;;;;12411630;28;20520;-37
2024/03/03 12:58:19;;;;;;;22.83;20.45;;;13.10;99.90;;;;;;12422958;28;20050;-36
2024/03/03 13:04:22;;;;;;;22.00;18.55;;;13.40;99.90;;;;;;12416652;28;20140;-36
2024/03/03 13:10:24;;;;;;;22.27;19.98;;;14.00;99.90;;;;;;12430819;28;20527;-36
2024/03/03 13:16:28;;;;;;;23.55;21.20;;;14.30;99.90;;;;;;12437977;28;20523;-36
2024/03/03 13:22:30;;;;;;;24.35;22.00;;;14.20;99.90;;;;;;12423229;28;20482;-36
2024/03/03 13:28:32;;;;;;;26.20;23.55;;;14.10;99.90;;;;;;12444881;28;20104;-36
2024/03/03 13:34:35;;;;;;;23.85;20.98;;;14.30;99.90;;;;;;12438204;28;20068;-36
2024/03/03 13:40:37;;;;;;;25.98;23.40;;;13.90;99.90;;;;;;12433841;28;20107;-36
2024/03/03 13:46:39;;;;;;;27.10;23.67;;;13.80;99.90;;;;;;12441155;28;20041;-36
2024/03/03 13:52:41;;;;;;;25.08;22.48;;;13.90;99.90;;;;;;12439134;28;20057;-36
2024/03/03 13:58:43;;;;;;;26.77;23.90;;;13.90;99.90;;;;;;12439032;28;20038;-37
2024/03/03 14:04:45;;;;;;;26.85;24.05;;;13.80;99.90;;;;;;12441409;28;20046;-36
2024/03/03 14:10:46;;;;;;;26.50;23.67;;;13.70;99.90;;;;;;12428695;28;20092;-36
2024/03/03 14:16:48;;;;;;;28.75;25.45;;;13.70;99.90;;;;;;12442950;28;20042;-36
2024/03/03 14:22:50;;;;;;;26.27;23.30;;;13.60;99.90;;;;;;12438951;28;20127;-36
2024/03/03 14:28:53;;;;;;;27.08;22.33;;;13.60;99.90;;;;;;12437970;28;20049;-35
2024/03/03 14:34:57;;;;;;;18.90;16.90;;;13.60;99.90;;;;;;12427293;28;20513;-36
2024/03/03 14:40:59;;;;;;;17.27;15.48;;;13.70;99.90;;;;;;12431408;28;20056;-36
2024/03/03 14:47:01;;;;;;;18.83;16.70;;;13.70;99.90;;;;;;12437102;28;20042;-37
2024/03/03 14:53:07;;;;;;;22.25;19.90;;;13.50;99.90;;;;;;12426801;28;20053;-36
2024/03/03 14:59:09;;;;;;;25.00;22.05;;;13.40;99.90;;;;;;12436988;28;20554;-36
2024/03/03 15:05:10;;;;;;;25.10;20.60;;;13.30;99.90;;;;;;12433993;28;20103;-36
2024/03/03 15:11:13;;;;;;;25.70;21.85;;;13.10;99.90;;;;;;12431260;28;20141;-36
2024/03/03 15:17:20;;;;;;;24.38;21.73;;;13.10;99.90;;;;;;12427564;28;20045;-36
2024/03/03 15:23:22;;;;;;;27.25;22.15;;;13.00;99.90;;;;;;12431385;28;20069;-36
2024/03/03 15:29:24;;;;;;;27.00;21.75;;;13.00;99.90;;;;;;12434228;28;20497;-36
2024/03/03 15:35:26;;;;;;;25.52;22.30;;;12.90;99.90;;;;;;12430044;28;20109;-36
2024/03/03 15:41:28;;;;;;;27.67;23.17;;;12.80;99.90;;;;;;12427586;28;20462;-36
2024/03/03 15:47:30;;;;;;;29.48;24.55;;;12.70;99.90;;;;;;12437347;28;20080;-36
2024/03/03 15:53:32;;;;;;;27.50;24.20;;;12.60;99.90;;;;;;12433763;28;20474;-36
2024/03/03 15:59:34;;;;;;;30.83;25.42;;;12.60;99.90;;;;;;12436360;28;20533;-36
2024/03/03 16:05:36;;;;;;;28.58;24.38;;;12.60;99.90;;;;;;12427817;28;20050;-36
2024/03/03 16:11:38;;;;;;;32.45;25.52;;;12.40;99.90;;;;;;12432007;28;20049;-36
2024/03/03 16:17:40;;;;;;;37.25;27.38;;;12.40;99.90;;;;;;12437778;28;20085;-36
2024/03/03 16:23:41;;;;;;;31.50;25.92;;;12.30;99.90;;;;;;12435816;28;20046;-36
2024/03/03 16:29:43;;;;;;;33.53;25.75;;;12.20;99.90;;;;;;12435003;28;20068;-36
2024/03/03 16:35:46;;;;;;;35.97;25.98;;;12.00;99.90;;;;;;12430160;28;20575;-36
2024/03/03 16:41:48;;;;;;;32.55;24.92;;;11.90;99.90;;;;;;12414945;28;20418;-36
2024/03/03 16:47:52;;;;;;;34.92;24.85;;;11.80;99.90;;;;;;12421174;28;20518;-36
2024/03/03 16:53:54;;;;;;;31.90;25.38;;;11.70;99.90;;;;;;12444361;28;20524;-35
2024/03/03 16:59:56;;;;;;;32.88;24.90;;;11.50;99.90;;;;;;12439705;28;20532;-36
2024/03/03 17:05:58;;;;;;;30.65;22.90;;;11.30;99.90;;;;;;12442829;28;20136;-35
2024/03/03 17:12:00;;;;;;;34.55;24.00;;;11.30;99.90;;;;;;12441789;28;20421;-36
2024/03/03 17:18:02;;;;;;;33.80;22.98;;;11.10;99.90;;;;;;12440411;28;20072;-35
2024/03/03 17:24:04;;;;;;;33.63;23.05;;;10.90;99.90;;;;;;12439886;28;20050;-36
2024/03/03 17:30:07;;;;;;;36.25;22.23;;;10.80;99.90;;;;;;12441841;28;20081;-36
2024/03/03 17:36:09;;;;;;;36.27;20.77;;;10.70;99.90;;;;;;12436759;28;20081;-36
2024/03/03 17:42:11;;;;;;;31.40;20.38;;;10.60;99.90;;;;;;12417056;28;20073;-36
2024/03/03 17:48:15;;;;;;;30.13;20.23;;;10.60;99.90;;;;;;12436724;28;20054;-36
2024/03/03 17:54:17;;;;;;;32.03;21.00;;;10.50;99.90;;;;;;12439214;28;20136;-36
2024/03/03 18:00:20;;;;;;;30.52;19.95;;;10.40;99.90;;;;;;12437670;28;20072;-35
2024/03/03 18:06:22;;;;;;;29.05;19.60;;;10.30;99.90;;;;;;12427331;28;20050;-36
2024/03/03 18:12:26;;;;;;;32.95;19.15;;;10.30;99.90;;;;;;12439066;28;20047;-36
2024/03/03 18:18:28;;;;;;;29.55;18.45;;;10.30;99.90;;;;;;12436418;28;20068;-36
2024/03/03 18:24:31;;;;;;;28.08;19.25;;;10.20;99.90;;;;;;12435103;28;20042;-36
2024/03/03 18:30:33;;;;;;;31.77;20.63;;;10.10;99.90;;;;;;12433412;28;20058;-36
2024/03/03 18:36:35;;;;;;;29.35;19.52;;;9.90;99.90;;;;;;12432530;28;20076;-36
2024/03/03 18:42:37;;;;;;;26.73;18.58;;;9.90;99.90;;;;;;12415249;28;20414;-36
2024/03/03 18:48:39;;;;;;;30.17;19.35;;;9.90;99.90;;;;;;12417846;28;20490;-36
2024/03/03 18:54:42;;;;;;;31.90;19.13;;;9.90;99.90;;;;;;12424470;28;20089;-36
2024/03/03 19:00:44;;;;;;;27.15;18.20;;;9.90;99.90;;;;;;12407530;28;20042;-35
2024/03/03 19:06:50;;;;;;;29.20;18.05;;;9.80;99.90;;;;;;12418538;28;20553;-36
2024/03/03 19:12:52;;;;;;;24.88;17.20;;;9.80;99.90;;;;;;12405805;28;20045;-36
2024/03/03 19:18:53;;;;;;;30.52;18.70;;;9.80;99.90;;;;;;12410859;28;20082;-36
2024/03/03 19:24:55;;;;;;;27.70;19.73;;;9.70;99.90;;;;;;12409215;28;20054;-36
2024/03/03 19:30:58;;;;;;;28.48;18.48;;;9.60;99.90;;;;;;12422548;28;20497;-35
2024/03/03 19:37:01;;;;;;;30.17;18.98;;;9.50;99.90;;;;;;12424764;28;20054;-36
2024/03/03 19:43:03;;;;;;;27.17;18.40;;;9.40;99.90;;;;;;12422240;28;20048;-35
2024/03/03 19:49:05;;;;;;;27.02;17.67;;;9.40;99.90;;;;;;12430589;28;20084;-35
2024/03/03 19:55:07;;;;;;;29.33;18.50;;;9.50;99.90;;;;;;12427081;28;20168;-36
2024/03/03 20:01:09;;;;;;;28.80;19.20;;;9.50;99.90;;;;;;12432084;28;20045;-36
2024/03/03 20:07:11;;;;;;;27.85;19.35;;;9.20;99.90;;;;;;12433258;28;20091;-36
2024/03/03 20:13:15;;;;;;;29.30;19.63;;;9.10;99.90;;;;;;12429215;28;20095;-36
2024/03/03 20:19:17;;;;;;;27.55;19.40;;;8.90;99.90;;;;;;12432630;28;20487;-36
2024/03/03 20:25:19;;;;;;;30.17;19.50;;;8.80;99.90;;;;;;12433221;28;20041;-35
2024/03/03 20:31:25;;;;;;;29.75;19.15;;;8.70;99.90;;;;;;12433823;28;20422;-36
2024/03/03 20:37:26;;;;;;;28.23;17.98;;;8.70;99.90;;;;;;12427656;28;20062;-36
2024/03/03 20:43:28;;;;;;;28.15;19.20;;;8.60;99.90;;;;;;12430120;28;21593;-36
2024/03/03 20:49:30;;;;;;;30.27;19.70;;;8.50;99.90;;;;;;12432847;28;20054;-36
2024/03/03 20:55:32;;;;;;;29.83;19.13;;;8.40;99.90;;;;;;12433731;28;20100;-36
2024/03/03 21:01:34;;;;;;;30.90;18.58;;;8.40;99.90;;;;;;12429393;28;20119;-36
2024/03/03 21:07:37;;;;;;;27.05;17.80;;;8.30;99.90;;;;;;12427410;28;20533;-36
2024/03/03 21:13:38;;;;;;;28.58;18.80;;;8.30;99.90;;;;;;12429301;28;20081;-35
2024/03/03 21:19:40;;;;;;;29.58;20.02;;;8.10;99.90;;;;;;12425275;28;20050;-36
2024/03/03 21:25:42;;;;;;;28.38;18.73;;;8.00;99.90;;;;;;12433937;28;20058;-36
2024/03/03 21:31:44;;;;;;;34.20;18.40;;;7.90;99.90;;;;;;12419180;28;20050;-35
2024/03/03 21:37:46;;;;;;;28.83;18.88;;;8.00;99.90;;;;;;12439619;28;20145;-35
2024/03/03 21:43:48;;;;;;;26.27;17.40;;;7.90;99.90;;;;;;12435264;28;20498;-36
2024/03/03 21:49:50;;;;;;;27.95;18.83;;;7.90;99.90;;;;;;12432862;28;20525;-36
2024/03/03 21:55:52;;;;;;;24.85;17.23;;;7.80;99.90;;;;;;12440671;28;20049;-36
2024/03/03 22:01:54;;;;;;;31.35;19.00;;;7.60;99.90;;;;;;12440027;28;20034;-36
2024/03/03 22:08:08;;;;;;;27.38;16.90;;;7.60;99.90;;;;;;12419633;28;20061;-35
2024/03/03 22:14:10;;;;;;;29.08;18.75;;;7.60;99.90;;;;;;12438244;28;20058;-35
2024/03/03 22:20:12;;;;;;;28.65;17.33;;;7.40;99.90;;;;;;12436025;28;20045;-36
2024/03/03 22:26:14;;;;;;;26.67;16.95;;;7.10;99.90;;;;;;12424720;28;20077;-35
2024/03/03 22:32:16;;;;;;;27.40;17.05;;;7.00;99.90;;;;;;12436624;28;20429;-35
2024/03/03 22:38:18;;;;;;;28.33;16.55;;;7.00;99.90;;;;;;12422227;28;20057;-34
2024/03/03 22:44:19;;;;;;;28.08;17.25;;;7.00;99.90;;;;;;12427856;28;20136;-35
2024/03/03 22:50:22;;;;;;;30.92;17.02;;;6.90;99.90;;;;;;12430977;28;20049;-35
2024/03/03 22:56:23;;;;;;;29.58;17.27;;;6.90;99.90;;;;;;12438806;28;20136;-35
2024/03/03 23:02:25;;;;;;;27.83;16.83;;;6.90;99.90;;;;;;12435038;28;20156;-34
2024/03/03 23:08:27;;;;;;;29.40;17.63;;;6.80;99.90;;;;;;12433042;28;20175;-35
2024/03/03 23:14:29;;;;;;;27.55;16.67;;;6.90;99.90;;;;;;12424301;28;20092;-35
2024/03/03 23:20:31;;;;;;;27.40;17.05;;;6.80;99.90;;;;;;12438210;28;20410;-35
2024/03/03 23:26:32;;;;;;;28.17;17.50;;;6.90;99.90;;;;;;12433146;28;20046;-35
2024/03/03 23:32:35;;;;;;;29.25;17.48;;;7.20;99.90;;;;;;12433722;28;20502;-35
2024/03/03 23:38:37;;;;;;;27.33;17.23;;;7.10;99.90;;;;;;12412237;28;20097;-35
2024/03/03 23:44:39;;;;;;;30.48;17.55;;;7.10;99.90;;;;;;12437879;28;20495;-35
2024/03/03 23:50:41;;;;;;;27.40;16.48;;;7.00;99.90;;;;;;12431933;28;20069;-35
2024/03/03 23:56:43;;;;;;;28.17;17.48;;;6.80;99.90;;;;;;12433289;28;20426;-35
